Time;durP1;ratioP1;P1;durP2;ratioP2;P2;SDS_P1;SDS_P2;PMS_P1;PMS_P2;Temp;Humidity;BMP_temperature;BMP_pressure;BME280_temperature;BME280_humidity;BME280_pressure;Samples;Min_cycle;Max_cycle;Signal;HPM_P1;HPM_P2
2021/03/09 00:00:24;;;;;;;0.20;0.00;;;4.10;99.90;;;;;;5048804;28;20040;-84
2021/03/09 00:02:50;;;;;;;0.00;0.00;;;4.10;99.90;;;;;;5048873;28;20087;-84
2021/03/09 00:05:16;;;;;;;4.57;0.80;;;4.10;99.90;;;;;;5048760;28;20079;-83
2021/03/09 00:07:42;;;;;;;1.30;0.25;;;4.10;99.90;;;;;;5048770;28;20048;-84
2021/03/09 00:10:08;;;;;;;0.30;0.30;;;4.00;99.90;;;;;;5048923;28;20037;-84
2021/03/09 00:12:34;;;;;;;0.00;0.00;;;4.00;99.90;;;;;;5048631;28;20044;-84
2021/03/09 00:15:00;;;;;;;0.65;0.57;;;4.00;99.90;;;;;;5048639;28;20045;-83
2021/03/09 00:17:26;;;;;;;0.80;0.80;;;4.00;99.90;;;;;;5064937;28;20037;-84
2021/03/09 00:19:51;;;;;;;4.20;3.63;;;3.90;99.90;;;;;;5048488;28;20033;-84
2021/03/09 00:22:17;;;;;;;0.00;0.00;;;3.90;99.90;;;;;;5048537;28;20049;-83
2021/03/09 00:24:42;;;;;;;0.03;0.03;;;3.90;99.90;;;;;;5048649;28;20037;-84
2021/03/09 00:27:11;;;;;;;0.00;0.00;;;3.90;99.90;;;;;;5048233;28;20083;-83
2021/03/09 00:29:37;;;;;;;0.00;0.00;;;3.80;99.90;;;;;;5065167;28;20124;-83
2021/03/09 00:32:05;;;;;;;0.00;0.00;;;3.80;99.90;;;;;;5065343;28;20090;-83
2021/03/09 00:34:31;;;;;;;0.00;0.00;;;3.90;99.90;;;;;;5064570;28;20044;-83
2021/03/09 00:36:57;;;;;;;0.43;0.43;;;3.80;99.90;;;;;;5048026;28;20036;-83
2021/03/09 00:39:22;;;;;;;0.00;0.00;;;3.80;99.90;;;;;;5048613;28;20481;-83
2021/03/09 00:41:48;;;;;;;0.00;0.00;;;3.80;99.90;;;;;;5048304;28;20549;-83
2021/03/09 00:44:13;;;;;;;7.78;3.30;;;3.80;99.90;;;;;;5048099;28;20053;-84
2021/03/09 00:46:39;;;;;;;0.20;0.20;;;3.70;99.90;;;;;;5064543;28;20084;-83
2021/03/09 00:49:05;;;;;;;1.38;1.00;;;3.80;99.90;;;;;;5048172;28;20328;-84
2021/03/09 00:51:30;;;;;;;0.10;0.10;;;3.70;99.90;;;;;;5030325;28;20034;-83
2021/03/09 00:53:56;;;;;;;0.00;0.00;;;3.70;99.90;;;;;;5027395;28;20040;-83
2021/03/09 00:56:21;;;;;;;0.20;0.20;;;3.80;99.90;;;;;;5048196;28;20037;-83
2021/03/09 00:58:47;;;;;;;0.00;0.00;;;3.70;99.90;;;;;;5047927;28;20056;-83
2021/03/09 01:01:13;;;;;;;0.00;0.00;;;3.70;99.90;;;;;;5047978;28;20048;-83
2021/03/09 01:03:38;;;;;;;16.35;6.90;;;3.70;99.90;;;;;;5048194;28;20040;-84
2021/03/09 01:06:04;;;;;;;16.20;7.72;;;3.70;99.90;;;;;;5047701;28;20067;-84
2021/03/09 01:08:30;;;;;;;17.98;7.50;;;3.80;99.90;;;;;;5064150;28;20063;-83
2021/03/09 01:10:55;;;;;;;16.25;7.47;;;3.80;99.90;;;;;;5047925;28;20037;-83
2021/03/09 01:13:21;;;;;;;20.83;8.98;;;3.80;99.90;;;;;;5047641;28;20037;-84
2021/03/09 01:15:46;;;;;;;19.15;8.18;;;3.70;99.90;;;;;;5047125;28;20037;-83
2021/03/09 01:18:12;;;;;;;22.40;11.25;;;3.70;99.90;;;;;;5064587;28;20102;-83
2021/03/09 01:20:38;;;;;;;24.33;11.20;;;3.70;99.90;;;;;;5047823;28;20037;-84
2021/03/09 01:23:06;;;;;;;22.65;11.00;;;3.70;99.90;;;;;;5047549;28;20052;-83
2021/03/09 01:25:32;;;;;;;20.15;8.65;;;3.70;99.90;;;;;;5047955;28;20561;-83
2021/03/09 01:27:58;;;;;;;22.15;11.55;;;3.70;99.90;;;;;;5047588;28;20060;-83
2021/03/09 01:30:23;;;;;;;21.67;9.95;;;3.70;99.90;;;;;;5047639;28;20037;-83
2021/03/09 01:32:49;;;;;;;22.35;9.65;;;3.70;99.90;;;;;;5047645;28;20041;-83
2021/03/09 01:35:15;;;;;;;26.50;11.80;;;3.70;99.90;;;;;;5064209;28;20469;-83
2021/03/09 01:37:41;;;;;;;23.75;10.70;;;3.70;99.90;;;;;;5047632;28;20110;-83
2021/03/09 01:40:11;;;;;;;24.45;11.45;;;3.70;99.90;;;;;;5047616;28;20041;-83
2021/03/09 01:42:39;;;;;;;22.92;12.32;;;3.70;99.90;;;;;;5047388;28;20101;-83
2021/03/09 01:45:06;;;;;;;27.05;12.73;;;3.70;99.90;;;;;;5047658;28;20128;-83
2021/03/09 01:47:36;;;;;;;26.70;13.45;;;3.60;99.90;;;;;;5049813;28;20044;-83
2021/03/09 01:50:03;;;;;;;25.02;10.35;;;3.60;99.90;;;;;;5065586;28;20033;-83
2021/03/09 01:52:29;;;;;;;24.35;10.95;;;3.60;99.90;;;;;;5051388;28;20037;-83
2021/03/09 01:54:55;;;;;;;18.52;9.55;;;3.60;99.90;;;;;;5031365;28;20033;-84
2021/03/09 01:57:21;;;;;;;20.80;10.55;;;3.60;99.90;;;;;;5051529;28;20135;-84
2021/03/09 01:59:49;;;;;;;21.30;9.50;;;3.60;99.90;;;;;;5034831;28;20041;-83
2021/03/09 02:02:15;;;;;;;23.98;12.25;;;3.70;99.90;;;;;;5050979;28;20115;-84
2021/03/09 02:04:40;;;;;;;22.98;12.02;;;3.50;99.90;;;;;;5034468;28;20477;-83
2021/03/09 02:07:06;;;;;;;30.40;13.98;;;3.60;99.90;;;;;;5034082;28;20060;-83
2021/03/09 02:09:32;;;;;;;28.52;13.65;;;3.60;99.90;;;;;;5034447;28;20064;-83
2021/03/09 02:12:00;;;;;;;29.20;13.55;;;3.60;99.90;;;;;;5034185;28;20041;-83
2021/03/09 02:14:54;;;;;;;27.35;12.15;;;3.50;99.90;;;;;;5034169;28;20527;-83
2021/03/09 02:17:42;;;;;;;32.88;15.20;;;3.60;99.90;;;;;;5066080;28;20064;-83
2021/03/09 02:20:26;;;;;;;33.72;15.90;;;3.50;99.90;;;;;;5050671;28;20037;-83
2021/03/09 02:23:26;;;;;;;26.13;13.60;;;3.50;99.90;;;;;;5050471;28;20049;-83
2021/03/09 02:26:17;;;;;;;32.77;15.13;;;3.50;99.90;;;;;;5050943;28;20052;-83
2021/03/09 02:29:25;;;;;;;33.30;17.08;;;3.50;99.90;;;;;;5067213;28;20043;-83
2021/03/09 02:31:52;;;;;;;29.38;14.80;;;3.50;99.90;;;;;;5067920;28;20059;-83
2021/03/09 02:34:25;;;;;;;30.48;15.57;;;3.50;99.90;;;;;;5050754;28;20064;-83
2021/03/09 02:36:52;;;;;;;34.45;13.63;;;3.50;99.90;;;;;;5050183;28;20044;-83
2021/03/09 02:39:20;;;;;;;38.22;18.23;;;3.50;99.90;;;;;;5066636;28;20095;-83
2021/03/09 02:41:48;;;;;;;42.38;19.92;;;3.50;99.90;;;;;;5050293;28;20048;-84
2021/03/09 02:44:19;;;;;;;36.70;17.48;;;3.50;99.90;;;;;;5050504;28;20037;-84
2021/03/09 02:46:47;;;;;;;36.78;18.08;;;3.50;99.90;;;;;;5045154;28;20049;-83
2021/03/09 02:49:13;;;;;;;45.90;22.23;;;3.50;99.90;;;;;;5031919;28;20038;-83
2021/03/09 02:51:42;;;;;;;48.00;23.10;;;3.50;99.90;;;;;;5046957;28;20036;-83
2021/03/09 02:54:09;;;;;;;47.58;22.23;;;3.50;99.90;;;;;;5053435;28;20040;-83
2021/03/09 02:56:38;;;;;;;44.35;21.48;;;3.50;99.90;;;;;;5086914;28;20076;-83
2021/03/09 02:59:10;;;;;;;48.03;22.73;;;3.50;99.90;;;;;;5053299;28;20037;-83
2021/03/09 03:01:37;;;;;;;46.33;22.25;;;3.50;99.90;;;;;;5053060;28;20115;-83
2021/03/09 03:04:04;;;;;;;46.35;22.63;;;3.50;99.90;;;;;;5053185;28;20033;-84
2021/03/09 03:06:33;;;;;;;48.97;22.33;;;3.50;99.90;;;;;;5061171;22;20053;-83
2021/03/09 03:09:01;;;;;;;44.75;22.20;;;3.50;99.90;;;;;;5007410;28;20048;-84
2021/03/09 03:11:27;;;;;;;48.28;24.48;;;3.60;99.90;;;;;;5007555;28;20486;-85
2021/03/09 03:13:54;;;;;;;46.95;23.27;;;3.50;99.90;;;;;;5007464;28;20046;-83
2021/03/09 03:16:22;;;;;;;41.15;19.88;;;3.50;99.90;;;;;;5026843;28;20046;-84
2021/03/09 03:18:48;;;;;;;44.70;20.75;;;3.50;99.90;;;;;;4994659;28;20046;-83
2021/03/09 03:21:16;;;;;;;49.15;23.67;;;3.50;99.90;;;;;;5008731;28;20046;-83
2021/03/09 03:23:43;;;;;;;42.97;21.00;;;3.60;99.90;;;;;;4994237;28;20046;-83
2021/03/09 03:26:10;;;;;;;42.47;21.45;;;3.60;99.90;;;;;;5008024;28;20065;-83
2021/03/09 03:28:46;;;;;;;50.63;25.33;;;3.60;99.90;;;;;;5003328;28;20457;-84
2021/03/09 03:31:12;;;;;;;41.45;20.33;;;3.60;99.90;;;;;;5008502;28;20038;-83
2021/03/09 03:33:38;;;;;;;45.13;22.52;;;3.60;99.90;;;;;;5003726;28;20046;-83
2021/03/09 03:36:06;;;;;;;50.60;24.05;;;3.60;99.90;;;;;;5007321;28;20054;-84
2021/03/09 03:38:36;;;;;;;46.83;21.77;;;3.60;99.90;;;;;;5002574;28;20045;-83
2021/03/09 03:41:03;;;;;;;50.28;23.08;;;3.60;99.90;;;;;;5009876;28;20132;-83
2021/03/09 03:43:31;;;;;;;43.75;22.25;;;3.60;99.90;;;;;;5009753;28;20046;-83
2021/03/09 03:45:57;;;;;;;53.05;24.85;;;3.60;99.90;;;;;;5009827;28;20109;-83
2021/03/09 03:48:24;;;;;;;50.60;24.88;;;3.60;99.90;;;;;;5009586;28;20065;-83
2021/03/09 03:50:51;;;;;;;47.20;24.35;;;3.60;99.90;;;;;;5004762;28;20061;-84
2021/03/09 03:53:29;;;;;;;50.88;24.80;;;3.60;99.90;;;;;;5009574;28;20069;-85
2021/03/09 03:56:13;;;;;;;51.22;25.88;;;3.60;99.90;;;;;;5009673;28;20042;-83
2021/03/09 03:58:53;;;;;;;48.70;25.50;;;3.60;99.90;;;;;;5009470;28;20106;-83
2021/03/09 04:01:23;;;;;;;49.00;24.77;;;3.60;99.90;;;;;;5009468;28;20038;-82
2021/03/09 04:03:51;;;;;;;53.47;25.63;;;3.60;99.90;;;;;;5025646;28;20038;-83
2021/03/09 04:06:26;;;;;;;51.80;25.40;;;3.60;99.90;;;;;;5028752;28;20092;-83
2021/03/09 04:08:55;;;;;;;48.70;23.23;;;3.60;99.90;;;;;;5028467;28;20053;-84
2021/03/09 04:11:22;;;;;;;49.97;22.73;;;3.60;99.90;;;;;;5012520;28;20144;-83
2021/03/09 04:13:49;;;;;;;53.78;26.13;;;3.60;99.90;;;;;;5012517;28;20034;-83
2021/03/09 04:16:16;;;;;;;57.67;27.77;;;3.60;99.90;;;;;;5000890;28;20061;-83
2021/03/09 04:18:43;;;;;;;54.38;27.30;;;3.60;99.90;;;;;;5034992;23;20072;-84
2021/03/09 04:21:09;;;;;;;50.70;25.05;;;3.60;99.90;;;;;;5049300;28;20063;-83
2021/03/09 04:23:46;;;;;;;44.88;22.10;;;3.60;99.90;;;;;;5048902;28;20048;-83
2021/03/09 04:26:14;;;;;;;48.42;25.23;;;3.60;99.90;;;;;;5032591;28;20037;-83
2021/03/09 04:28:41;;;;;;;47.45;22.70;;;3.60;99.90;;;;;;5032247;28;20079;-84
2021/03/09 04:31:07;;;;;;;46.75;21.45;;;3.60;99.90;;;;;;5031883;28;20043;-84
2021/03/09 04:33:33;;;;;;;43.45;21.55;;;3.60;99.90;;;;;;5032001;28;20129;-84
2021/03/09 04:36:01;;;;;;;41.42;20.73;;;3.70;99.90;;;;;;5048445;28;20045;-84
2021/03/09 04:38:28;;;;;;;47.92;23.13;;;3.70;99.90;;;;;;5031977;28;20063;-83
2021/03/09 04:40:54;;;;;;;41.40;20.30;;;3.70;99.90;;;;;;5066246;28;20041;-83
2021/03/09 04:43:20;;;;;;;40.58;20.55;;;3.70;99.90;;;;;;5048332;28;20056;-83
2021/03/09 04:45:49;;;;;;;38.13;19.38;;;3.70;99.90;;;;;;5031886;28;20132;-84
2021/03/09 04:48:15;;;;;;;38.60;18.88;;;3.70;99.90;;;;;;5048277;28;20495;-83
2021/03/09 04:50:45;;;;;;;38.85;20.30;;;3.70;99.90;;;;;;5033575;28;20040;-84
2021/03/09 04:53:10;;;;;;;44.00;21.20;;;3.80;99.90;;;;;;5048509;28;20469;-85
2021/03/09 04:55:36;;;;;;;42.90;19.80;;;3.70;99.90;;;;;;5041252;28;20040;-84
2021/03/09 04:58:02;;;;;;;38.05;19.88;;;3.70;99.90;;;;;;5048175;28;20048;-84
2021/03/09 05:00:28;;;;;;;43.95;21.30;;;3.70;99.90;;;;;;5056340;28;20037;-83
2021/03/09 05:02:54;;;;;;;43.63;21.15;;;3.70;99.90;;;;;;5047976;28;20120;-83
2021/03/09 05:05:40;;;;;;;41.05;20.85;;;3.70;99.90;;;;;;5047793;28;20033;-84
2021/03/09 05:08:05;;;;;;;45.72;22.27;;;3.70;99.90;;;;;;5023920;28;20056;-83
2021/03/09 05:10:31;;;;;;;37.33;18.48;;;3.80;99.90;;;;;;5010250;28;20042;-84
2021/03/09 05:12:57;;;;;;;37.95;19.92;;;3.80;99.90;;;;;;5027019;28;20034;-83
2021/03/09 05:15:23;;;;;;;36.03;18.90;;;3.80;99.90;;;;;;5023785;28;20113;-83
2021/03/09 05:17:49;;;;;;;38.42;18.88;;;3.80;99.90;;;;;;4987600;28;20034;-82
2021/03/09 05:20:17;;;;;;;34.50;17.13;;;3.80;99.90;;;;;;4986993;28;20046;-82
2021/03/09 05:22:43;;;;;;;43.28;20.80;;;3.80;99.90;;;;;;5025805;28;20552;-83
2021/03/09 05:25:11;;;;;;;38.67;19.30;;;3.80;99.90;;;;;;5027198;28;20030;-83
2021/03/09 05:27:39;;;;;;;48.40;24.70;;;3.80;99.90;;;;;;5010995;28;20104;-83
2021/03/09 05:30:06;;;;;;;49.25;23.77;;;3.80;99.90;;;;;;5027336;28;20053;-82
2021/03/09 05:32:35;;;;;;;44.08;22.25;;;3.80;99.90;;;;;;5007706;28;20041;-82
2021/03/09 05:35:01;;;;;;;39.38;21.70;;;3.80;99.90;;;;;;5022793;28;20084;-83
2021/03/09 05:37:27;;;;;;;45.03;24.23;;;3.80;99.90;;;;;;5013004;28;20034;-83
2021/03/09 05:39:53;;;;;;;47.22;23.58;;;3.80;99.90;;;;;;5020374;28;20046;-84
2021/03/09 05:42:18;;;;;;;46.17;22.40;;;3.80;99.90;;;;;;5028375;28;20045;-84
2021/03/09 05:44:44;;;;;;;44.15;21.63;;;3.80;99.90;;;;;;5054916;28;20073;-84
2021/03/09 05:47:10;;;;;;;41.42;21.20;;;3.90;99.90;;;;;;5046432;28;20075;-83
2021/03/09 05:49:36;;;;;;;41.80;23.00;;;3.90;99.90;;;;;;5051093;28;20489;-83
2021/03/09 05:52:02;;;;;;;47.40;24.35;;;3.80;99.90;;;;;;5047784;28;20044;-84
2021/03/09 05:54:27;;;;;;;42.38;22.38;;;3.90;99.90;;;;;;5040802;28;20045;-84
2021/03/09 05:56:54;;;;;;;41.53;20.60;;;3.90;99.90;;;;;;5050765;28;20509;-83
2021/03/09 05:59:19;;;;;;;47.15;21.98;;;3.90;99.90;;;;;;5050650;28;20041;-84
2021/03/09 06:01:45;;;;;;;41.33;21.05;;;3.90;99.90;;;;;;5044816;28;20075;-83
2021/03/09 06:04:11;;;;;;;40.47;20.65;;;3.90;99.90;;;;;;5034582;28;20128;-85
2021/03/09 06:06:37;;;;;;;51.83;26.20;;;3.90;99.90;;;;;;5067443;28;20048;-84
2021/03/09 06:09:42;;;;;;;47.95;23.20;;;3.90;99.90;;;;;;5064600;28;20116;-84
2021/03/09 06:12:18;;;;;;;52.28;25.38;;;3.90;99.90;;;;;;5051157;28;20452;-84
2021/03/09 06:15:00;;;;;;;47.67;24.80;;;3.90;99.90;;;;;;5045246;28;20045;-82
2021/03/09 06:17:34;;;;;;;43.40;22.15;;;3.90;99.90;;;;;;5058381;28;20043;-84
2021/03/09 06:20:00;;;;;;;49.38;24.60;;;3.90;99.90;;;;;;5046512;28;20063;-84
2021/03/09 06:22:46;;;;;;;46.95;24.33;;;3.90;99.90;;;;;;5050066;28;20048;-84
2021/03/09 06:25:17;;;;;;;40.58;21.42;;;3.90;99.90;;;;;;5050785;28;20033;-84
2021/03/09 06:27:43;;;;;;;48.60;23.75;;;4.00;99.90;;;;;;5034929;28;20065;-84
2021/03/09 06:30:28;;;;;;;37.75;20.52;;;4.00;99.90;;;;;;5015477;28;20038;-84
2021/03/09 06:32:54;;;;;;;40.35;21.55;;;4.00;99.90;;;;;;5029832;28;20037;-85
2021/03/09 06:35:36;;;;;;;44.90;22.98;;;4.00;99.90;;;;;;5014040;28;20146;-84
2021/03/09 06:38:26;;;;;;;50.58;26.05;;;4.00;99.90;;;;;;5014978;28;20115;-85
2021/03/09 06:41:10;;;;;;;51.90;25.75;;;4.00;99.90;;;;;;5030433;28;20042;-84
2021/03/09 06:43:44;;;;;;;53.83;27.30;;;4.00;99.90;;;;;;5030758;28;20132;-85
2021/03/09 06:46:19;;;;;;;45.50;23.30;;;4.00;99.90;;;;;;5037142;28;20041;-84
2021/03/09 06:48:50;;;;;;;48.63;23.98;;;4.10;99.90;;;;;;5050404;28;20055;-85
2021/03/09 06:51:26;;;;;;;41.90;20.65;;;4.10;99.90;;;;;;5040110;28;20090;-85
2021/03/09 06:54:21;;;;;;;41.95;22.15;;;4.10;99.90;;;;;;5061915;28;20052;-85
2021/03/09 06:56:47;;;;;;;45.38;22.83;;;4.10;99.90;;;;;;5040842;28;20087;-85
2021/03/09 06:59:24;;;;;;;42.53;21.83;;;4.10;99.90;;;;;;5054854;28;20075;-86
2021/03/09 07:02:28;;;;;;;41.42;22.63;;;4.10;99.90;;;;;;5032704;28;20079;-84
2021/03/09 07:05:06;;;;;;;41.10;20.90;;;4.10;99.90;;;;;;5045194;28;20045;-84
2021/03/09 07:07:34;;;;;;;39.80;21.35;;;4.10;99.90;;;;;;5032589;28;20401;-84
2021/03/09 07:10:03;;;;;;;40.15;21.20;;;4.10;99.90;;;;;;5049232;28;20476;-83
2021/03/09 07:12:33;;;;;;;45.97;23.70;;;4.20;99.90;;;;;;5049539;28;20068;-84
2021/03/09 07:14:59;;;;;;;46.45;23.65;;;4.20;99.90;;;;;;5049423;28;20092;-84
2021/03/09 07:17:31;;;;;;;40.78;20.73;;;4.20;99.90;;;;;;5031858;28;20087;-84
2021/03/09 07:19:59;;;;;;;40.72;21.02;;;4.20;99.90;;;;;;5033149;28;20049;-85
2021/03/09 07:22:26;;;;;;;52.40;24.58;;;4.20;99.90;;;;;;5050218;28;20053;-84
2021/03/09 07:25:07;;;;;;;40.00;20.40;;;4.20;99.90;;;;;;5050444;28;20045;-85
2021/03/09 07:27:44;;;;;;;42.28;20.30;;;4.20;99.90;;;;;;5065358;28;20075;-85
2021/03/09 07:30:11;;;;;;;45.85;23.27;;;4.20;99.90;;;;;;5048827;28;20195;-85
2021/03/09 07:32:40;;;;;;;47.95;22.45;;;4.20;99.90;;;;;;5031933;28;20045;-85
2021/03/09 07:35:08;;;;;;;45.60;21.33;;;4.30;99.90;;;;;;5032411;28;20043;-85
2021/03/09 07:37:37;;;;;;;40.67;20.73;;;4.30;99.90;;;;;;5048598;28;20040;-85
2021/03/09 07:40:04;;;;;;;48.25;24.42;;;4.30;99.90;;;;;;5032174;28;20041;-85
2021/03/09 07:42:29;;;;;;;51.85;25.88;;;4.30;99.90;;;;;;5032288;28;20044;-85
2021/03/09 07:44:55;;;;;;;47.97;24.45;;;4.30;99.90;;;;;;5031488;28;20444;-84
2021/03/09 07:47:21;;;;;;;51.08;26.75;;;4.30;99.90;;;;;;5031909;28;20075;-84
2021/03/09 07:49:47;;;;;;;47.05;22.08;;;4.30;99.90;;;;;;5032095;28;20029;-84
2021/03/09 07:52:15;;;;;;;47.85;23.58;;;4.40;99.90;;;;;;5031821;28;20060;-84
2021/03/09 07:55:01;;;;;;;48.50;24.90;;;4.40;99.90;;;;;;5048296;28;20059;-84
2021/03/09 07:57:27;;;;;;;43.58;23.65;;;4.40;99.90;;;;;;5031662;28;20135;-84
2021/03/09 08:00:03;;;;;;;56.85;27.23;;;4.50;99.90;;;;;;5048471;28;20032;-84
2021/03/09 08:02:47;;;;;;;63.60;30.67;;;4.50;99.90;;;;;;5048504;28;20141;-85
2021/03/09 08:05:46;;;;;;;66.47;30.30;;;4.50;99.90;;;;;;5031778;28;20041;-84
2021/03/09 08:08:12;;;;;;;52.15;26.20;;;4.50;99.90;;;;;;4968716;28;20159;-84
2021/03/09 08:10:43;;;;;;;52.42;25.30;;;4.60;99.90;;;;;;4968696;28;20062;-84
2021/03/09 08:13:08;;;;;;;73.20;35.72;;;4.60;99.90;;;;;;4968514;28;20114;-84
2021/03/09 08:15:35;;;;;;;64.72;32.42;;;4.60;99.90;;;;;;4948154;29;20046;-85
2021/03/09 08:18:19;;;;;;;69.03;34.55;;;4.70;99.90;;;;;;4944062;28;20059;-85
2021/03/09 08:20:59;;;;;;;75.63;35.55;;;4.70;99.90;;;;;;4951927;28;20077;-85
2021/03/09 08:23:33;;;;;;;63.70;32.08;;;4.80;99.90;;;;;;4967792;28;20047;-84
2021/03/09 08:26:07;;;;;;;75.60;38.60;;;4.80;99.90;;;;;;4952080;28;20035;-84
2021/03/09 08:28:37;;;;;;;67.85;33.05;;;4.80;99.90;;;;;;4968141;28;20057;-84
2021/03/09 08:31:12;;;;;;;63.55;33.10;;;4.90;99.90;;;;;;4968516;28;20466;-84
2021/03/09 08:33:45;;;;;;;78.22;34.70;;;4.90;99.90;;;;;;4952125;28;20034;-84
2021/03/09 08:36:19;;;;;;;62.00;31.63;;;4.90;99.90;;;;;;4984199;28;20394;-84
2021/03/09 08:39:10;;;;;;;78.45;36.90;;;5.00;99.90;;;;;;4952076;28;20046;-84
2021/03/09 08:41:36;;;;;;;64.88;29.17;;;5.00;99.90;;;;;;4952073;28;20105;-84
2021/03/09 08:44:20;;;;;;;54.80;27.55;;;5.10;99.90;;;;;;4972182;28;20038;-84
2021/03/09 08:47:05;;;;;;;64.47;31.73;;;5.30;99.90;;;;;;5031127;28;20048;-84
2021/03/09 08:49:37;;;;;;;50.75;24.33;;;5.30;99.90;;;;;;5036319;28;20029;-84
2021/03/09 08:52:07;;;;;;;51.80;25.73;;;5.40;99.90;;;;;;5047523;28;20457;-84
2021/03/09 08:54:49;;;;;;;48.05;25.42;;;5.30;99.90;;;;;;5046857;28;20499;-84
2021/03/09 08:57:24;;;;;;;41.05;20.90;;;5.40;99.90;;;;;;5047063;28;20112;-85
2021/03/09 08:59:52;;;;;;;37.55;17.77;;;5.40;99.90;;;;;;5047540;28;20323;-84
2021/03/09 09:02:26;;;;;;;43.00;22.20;;;5.40;99.90;;;;;;5047165;28;20065;-84
2021/03/09 09:04:58;;;;;;;37.88;18.35;;;5.40;99.90;;;;;;5047347;28;20076;-84
2021/03/09 09:07:24;;;;;;;39.55;20.58;;;5.30;99.90;;;;;;5047473;28;20033;-84
2021/03/09 09:09:52;;;;;;;43.92;22.17;;;5.30;99.90;;;;;;5047515;28;20099;-84
2021/03/09 09:12:32;;;;;;;41.38;21.27;;;5.40;99.90;;;;;;5064208;28;20102;-85
2021/03/09 09:15:13;;;;;;;41.80;20.77;;;5.30;99.90;;;;;;5047659;28;20033;-85
2021/03/09 09:17:43;;;;;;;34.65;18.85;;;5.40;99.90;;;;;;5048532;28;20048;-84
2021/03/09 09:20:12;;;;;;;35.97;18.25;;;5.40;99.90;;;;;;5029913;28;20044;-84
2021/03/09 09:22:38;;;;;;;39.28;17.88;;;5.40;99.90;;;;;;5047458;28;20056;-85
2021/03/09 09:25:09;;;;;;;35.35;18.17;;;5.40;99.90;;;;;;5030680;28;20036;-84
2021/03/09 09:27:53;;;;;;;39.70;18.38;;;5.40;99.90;;;;;;5030560;28;20041;-84
2021/03/09 09:30:34;;;;;;;46.55;20.30;;;5.50;99.90;;;;;;5030643;28;20040;-85
2021/03/09 09:33:00;;;;;;;36.60;17.80;;;5.60;99.90;;;;;;5047270;28;20037;-85
2021/03/09 09:35:30;;;;;;;30.35;15.23;;;5.70;99.90;;;;;;5065022;28;20059;-85
2021/03/09 09:38:05;;;;;;;33.08;13.93;;;5.90;99.90;;;;;;5047275;28;20041;-85
2021/03/09 09:40:39;;;;;;;27.65;14.80;;;5.90;99.90;;;;;;5030561;28;20041;-86
2021/03/09 09:43:08;;;;;;;28.13;12.82;;;6.00;99.90;;;;;;5030582;28;20057;-85
2021/03/09 09:45:44;;;;;;;21.98;11.77;;;5.90;99.90;;;;;;5047369;28;20041;-85
2021/03/09 09:48:12;;;;;;;30.08;13.32;;;6.00;99.90;;;;;;5047131;28;20041;-85
2021/03/09 09:50:47;;;;;;;21.08;9.50;;;6.00;99.90;;;;;;5047190;28;20103;-85
2021/03/09 09:53:28;;;;;;;19.40;8.20;;;6.20;99.90;;;;;;5047409;28;20064;-85
2021/03/09 09:55:55;;;;;;;15.63;6.82;;;6.20;99.90;;;;;;5046802;28;20124;-85
2021/03/09 09:58:21;;;;;;;17.80;7.03;;;6.30;99.90;;;;;;5063646;28;20095;-85
2021/03/09 10:00:54;;;;;;;11.63;4.93;;;6.40;99.90;;;;;;5063623;28;20041;-85
2021/03/09 10:03:20;;;;;;;11.50;4.28;;;6.50;99.90;;;;;;5046797;28;20067;-85
2021/03/09 10:05:46;;;;;;;8.15;3.50;;;6.50;99.90;;;;;;5063420;28;20037;-85
2021/03/09 10:08:33;;;;;;;12.07;3.63;;;6.50;99.90;;;;;;5048815;28;20045;-85
2021/03/09 10:11:00;;;;;;;7.93;2.53;;;6.40;99.90;;;;;;5050371;28;20037;-85
2021/03/09 10:13:26;;;;;;;5.95;1.88;;;6.40;99.90;;;;;;5050536;28;20108;-85
2021/03/09 10:15:52;;;;;;;4.45;2.40;;;6.40;99.90;;;;;;5050299;28;20033;-84
2021/03/09 10:18:29;;;;;;;6.20;1.58;;;6.40;99.90;;;;;;5050409;28;20045;-85
2021/03/09 10:21:02;;;;;;;4.05;1.60;;;6.40;99.90;;;;;;5066845;28;20053;-86
2021/03/09 10:23:28;;;;;;;4.88;1.40;;;6.40;99.90;;;;;;5068206;28;20045;-85
2021/03/09 10:26:00;;;;;;;7.80;1.48;;;6.40;99.90;;;;;;5049902;28;20041;-85
2021/03/09 10:28:26;;;;;;;6.05;1.52;;;6.40;99.90;;;;;;5050304;28;20227;-85
2021/03/09 10:30:52;;;;;;;7.18;1.40;;;6.30;99.90;;;;;;5066531;28;20108;-85
2021/03/09 10:33:18;;;;;;;5.53;1.52;;;6.40;99.90;;;;;;5068078;28;20037;-85
2021/03/09 10:36:05;;;;;;;4.93;1.42;;;6.50;99.90;;;;;;5066818;28;20114;-85
2021/03/09 10:38:32;;;;;;;3.45;1.50;;;6.60;99.90;;;;;;5050175;28;20496;-85
2021/03/09 10:40:58;;;;;;;4.25;1.45;;;6.60;99.90;;;;;;5049660;28;20037;-84
2021/03/09 10:43:39;;;;;;;5.10;1.13;;;6.60;99.90;;;;;;5050024;28;20049;-85
2021/03/09 10:46:05;;;;;;;3.20;0.90;;;6.60;99.90;;;;;;5049905;28;20104;-85
2021/03/09 10:48:31;;;;;;;3.63;1.15;;;6.50;99.90;;;;;;5049959;28;20037;-84
2021/03/09 10:50:56;;;;;;;2.90;0.70;;;6.50;99.90;;;;;;5049560;28;20443;-85
2021/03/09 10:53:22;;;;;;;3.60;1.02;;;6.40;99.90;;;;;;5049721;28;20056;-85
2021/03/09 10:55:47;;;;;;;4.72;0.88;;;6.40;99.90;;;;;;5049486;28;20021;-85
2021/03/09 10:58:13;;;;;;;3.10;0.80;;;6.40;99.90;;;;;;5049757;28;20041;-85
2021/03/09 11:00:39;;;;;;;2.83;0.80;;;6.40;99.90;;;;;;5049621;28;20037;-85
2021/03/09 11:03:04;;;;;;;3.75;0.70;;;6.40;99.90;;;;;;5049632;28;20056;-85
2021/03/09 11:05:30;;;;;;;2.58;0.70;;;6.40;99.90;;;;;;5049606;28;20056;-85
2021/03/09 11:07:56;;;;;;;2.58;0.60;;;6.40;99.90;;;;;;5033061;28;20037;-85
2021/03/09 11:10:21;;;;;;;5.18;0.70;;;6.40;99.90;;;;;;5049501;28;20304;-85
2021/03/09 11:12:47;;;;;;;2.85;0.80;;;6.40;99.90;;;;;;5049337;28;20041;-85
2021/03/09 11:15:13;;;;;;;3.53;0.65;;;6.50;99.90;;;;;;5049352;28;20051;-85
2021/03/09 11:17:39;;;;;;;2.55;0.70;;;6.50;99.90;;;;;;5049412;28;20037;-85
2021/03/09 11:20:06;;;;;;;2.22;0.60;;;6.60;99.90;;;;;;5048917;28;20045;-85
2021/03/09 11:22:32;;;;;;;2.95;0.60;;;6.60;99.90;;;;;;5049476;28;20064;-85
2021/03/09 11:24:57;;;;;;;3.00;0.50;;;6.70;99.90;;;;;;5067327;28;20393;-85
2021/03/09 11:27:23;;;;;;;5.93;0.55;;;6.70;99.90;;;;;;5049080;28;20077;-85
2021/03/09 11:29:49;;;;;;;4.60;0.60;;;6.60;99.90;;;;;;5049143;28;20045;-85
2021/03/09 11:32:14;;;;;;;2.08;0.90;;;6.60;99.90;;;;;;5049189;28;20072;-85
2021/03/09 11:34:40;;;;;;;1.65;0.50;;;6.60;99.90;;;;;;5037536;28;20091;-85
2021/03/09 11:37:05;;;;;;;1.75;0.65;;;6.60;99.90;;;;;;5044984;28;20038;-85
2021/03/09 11:39:31;;;;;;;1.45;0.30;;;6.70;99.90;;;;;;5045654;28;20399;-85
2021/03/09 11:41:57;;;;;;;3.03;0.30;;;6.70;99.90;;;;;;5012374;28;20052;-84
2021/03/09 11:44:23;;;;;;;1.38;0.30;;;6.70;99.90;;;;;;5028947;28;20045;-85
2021/03/09 11:46:50;;;;;;;1.63;0.35;;;6.70;99.90;;;;;;5044953;28;20100;-85
2021/03/09 11:49:19;;;;;;;0.80;0.30;;;6.70;99.90;;;;;;5012766;28;20052;-85
2021/03/09 11:51:44;;;;;;;1.00;0.30;;;6.80;99.90;;;;;;5065036;28;20090;-84
2021/03/09 11:54:12;;;;;;;1.52;0.30;;;6.90;99.90;;;;;;5048857;28;20071;-84
2021/03/09 11:56:38;;;;;;;2.67;0.30;;;6.90;99.90;;;;;;5048615;28;20204;-85
2021/03/09 11:59:03;;;;;;;3.90;0.30;;;7.00;99.90;;;;;;5032180;28;20208;-85
2021/03/09 12:01:29;;;;;;;2.58;0.30;;;7.10;99.90;;;;;;5048223;28;20048;-86
2021/03/09 12:03:55;;;;;;;1.70;0.30;;;7.00;99.90;;;;;;5048462;28;20048;-85
2021/03/09 12:06:21;;;;;;;3.40;0.40;;;6.90;99.90;;;;;;5044658;28;20040;-85
2021/03/09 12:08:47;;;;;;;1.35;0.20;;;6.80;99.90;;;;;;5032015;28;20059;-85
2021/03/09 12:11:13;;;;;;;1.40;0.20;;;6.60;99.90;;;;;;5048385;28;20048;-85
2021/03/09 12:13:38;;;;;;;0.80;0.17;;;6.60;99.90;;;;;;5048467;28;20033;-85
2021/03/09 12:16:05;;;;;;;0.75;0.17;;;6.50;99.90;;;;;;5048223;28;20045;-85
2021/03/09 12:18:30;;;;;;;0.50;0.13;;;6.40;99.90;;;;;;5048446;28;20032;-85
2021/03/09 12:20:56;;;;;;;0.55;0.10;;;6.40;99.90;;;;;;5042364;28;20099;-85
2021/03/09 12:23:23;;;;;;;1.00;0.13;;;6.50;99.90;;;;;;5047984;28;20061;-86
2021/03/09 12:25:49;;;;;;;0.50;0.10;;;6.50;99.90;;;;;;5048212;28;20048;-85
2021/03/09 12:28:15;;;;;;;1.35;0.20;;;6.60;99.90;;;;;;5031549;28;20040;-85
2021/03/09 12:30:41;;;;;;;1.00;0.20;;;6.60;99.90;;;;;;5031235;28;20118;-85
2021/03/09 12:33:07;;;;;;;0.68;0.20;;;6.70;99.90;;;;;;5031751;28;20041;-85
2021/03/09 12:35:33;;;;;;;1.98;0.20;;;6.80;99.90;;;;;;5047924;28;20056;-85
2021/03/09 12:37:58;;;;;;;2.72;0.88;;;6.80;99.90;;;;;;5031447;28;20048;-85
2021/03/09 12:40:24;;;;;;;0.57;0.20;;;7.00;99.90;;;;;;5065721;28;20051;-85
2021/03/09 12:42:50;;;;;;;1.65;0.30;;;7.10;99.90;;;;;;5031309;28;20055;-85
2021/03/09 12:45:15;;;;;;;1.48;0.40;;;7.00;99.90;;;;;;5031460;28;20041;-85
2021/03/09 12:47:41;;;;;;;2.33;0.40;;;7.10;99.90;;;;;;5031301;28;20059;-85
2021/03/09 12:50:09;;;;;;;1.95;0.38;;;7.10;99.90;;;;;;5047830;28;20047;-85
2021/03/09 12:52:35;;;;;;;1.20;0.40;;;7.20;99.90;;;;;;5047569;28;20048;-85
2021/03/09 12:55:00;;;;;;;0.95;0.50;;;7.20;99.90;;;;;;5031395;28;20033;-85